logo
Search for airport 
image banner adimage banner adimage banner ad
image banner ad

FLZI - Mbizi

Located in Luembe, Zambia

ICAO - , IATA -

Data provided by Airmate  

General information

Coordinates: S14°25'42" E30°29'7"
Elevation is 1406 feet MSL.
Magnetic variation is -5° East
View others Airports in Eastern Province

Operational data

Special qualification required
Current time UTC:
Current local time:
Weather at : - ( 0 km )
METAR: PATQ 152241Z AUTO 20027KT 1 3/4SM UP BR CLR M02/M04 A2983 RMK AO2 PK WND 20031/2228 VIS 1 1/4V3 P0000 FZRANO TSNO
View NOTAMs / SUP AIP / TFR affecting this airport [VIEW]
Communications frequencies: [VIEW]

Runways:

RWY identifierQFULength (ft)Width (ft)SurfaceLDA (ft)
0985°3936100DIRT
27265°3936100DIRT

Airport contact information

Address: Luembe Zambia

Satellite view of FLZI